logo
App data

Everyday Genius: SquareLogic

The next generation of puzzle games is here! Combining simple arithmetic with colorful cages and logical problem solving, this new puzzle game makes sure you never have to guess—and you don’t have to be a math wiz!
Store | Hub | SteamDB | Site
Developer: TrueThought Publisher: TrueThought
Genre: Casual, Indie, Strategy
Languages: English
Tags: Puzzle (53), Casual (45), Indie (29), Strategy (25), Logic (23), Relaxing (14), Addictive (13)
Category: Single-player, Steam Achievements, Steam Cloud, Stats, Steam Leaderboards
Release date: Oct 9, 2009
Price: $4.99
Old userscore: 97% Owners: 0 .. 20,000
Followers: 0
Peak concurrent players yesterday: 6

Steam Spy is still in beta, so expect major bugs.

Owners data:

Access restricted.

This feature is only available to users with special access rights. Sorry.

If you want to proceed, you need to register or log in first and then back Steam Spy on Patreon. Look for Indie or Pro pledge.

Don't forget to use the same email as on Steam Spy!

If you've recently backed Steam Spy on Patreon, please note, that it might take around 15 minutes for your access rights to sync. In most cases you'll need to re-login on Steam Spy too.

Audience in 2 weeks:

Access restricted.

This feature is only available to users with special access rights. Sorry.

If you want to proceed, you need to register or log in first and then back Steam Spy on Patreon. Look for Indie or Pro pledge.

Don't forget to use the same email as on Steam Spy!

If you've recently backed Steam Spy on Patreon, please note, that it might take around 15 minutes for your access rights to sync. In most cases you'll need to re-login on Steam Spy too.

Peak daily concurrent players:

CCU data courtesy of SteamDB. Used with permission.

Hourly concurrent players:

Daily Twitch stats:

Hourly Twitch stats:

Followers over time

Access restricted.

This feature is only available to users with special access rights. Sorry.

If you want to proceed, you need to register or log in first and then back Steam Spy on Patreon. Look for Indie or Pro pledge.

Don't forget to use the same email as on Steam Spy!

If you've recently backed Steam Spy on Patreon, please note, that it might take around 15 minutes for your access rights to sync. In most cases you'll need to re-login on Steam Spy too.

Views for top 50 videos on YouTube for this game:

Games similar to this one:

# Game Release date
Price
Score rank
(Userscore / Metascore)
Owners
Players
Playtime (Median)
1 Caravanserail Feb 26, 2016 $2.99N/A (N/A)0 .. 20,0000%00:00 (00:00)
2 Love in the Glen Jun 9, 2016 $5.99N/A (N/A)20,000 .. 50,0000%00:00 (00:00)
3 Overload May 31, 2018 $29.99N/A (N/A/74%)50,000 .. 100,0008.33%00:03 (00:01)
4 One Last Chance Apr 7, 2016 $3.99N/A (N/A)0 .. 20,0000%00:00 (00:00)
5 Party Saboteurs: After Party Mar 31, 2016 $9.99N/A (N/A)0 .. 20,0000%00:00 (00:00)
6 Reptilian Rebellion Aug 8, 2016 $2.99N/A (N/A)50,000 .. 100,0000%00:00 (00:00)
7 Hustle Cat Mar 16, 2016 $19.99N/A (N/A)50,000 .. 100,0000%00:00 (00:00)
8 Townopolis Oct 19, 2008 $3.99N/A (N/A)0 .. 20,0000%00:00 (00:00)
9 Blueprint Tycoon May 13, 2016 $2.99N/A (N/A)50,000 .. 100,0000%00:00 (00:00)
10 The Dolls: Reborn May 25, 2016 $4.99N/A (N/A)20,000 .. 50,0000%00:00 (00:00)
11 Burst Mar 14, 2016 N/AN/A (N/A)20,000 .. 50,0000%00:00 (00:00)
12 Magma Tsunami Jun 1, 2016 $0.99N/A (N/A)200,000 .. 500,0000%00:00 (00:00)
13 [the Sequence] Mar 30, 2016 $4.99N/A (N/A)20,000 .. 50,0000%00:00 (00:00)
14 Frog Climbers Oct 6, 2016 $6.99N/A (N/A)20,000 .. 50,0000%00:00 (00:00)
15 Forgotten, Not Lost - A Kinetic Novel Apr 2, 2016 $1.99N/A (N/A)20,000 .. 50,0000%00:00 (00:00)
16 Totally Unbalanced Jul 29, 2016 FreeN/A (N/A)100,000 .. 200,0000%00:00 (00:00)
17 Melting Hearts: Our Love Will Grow 2 Apr 29, 2016 N/AN/A (N/A)20,000 .. 50,0000%00:00 (00:00)
18 PANORAMICAL Sep 17, 2015 $9.99N/A (N/A)0 .. 20,0000%00:00 (00:00)
19 Farm for your Life Jun 5, 2013 $9.99N/A (N/A)50,000 .. 100,0000%00:00 (00:00)
20 Strata May 29, 2014 $7.99N/A (N/A)20,000 .. 50,0000%00:00 (00:00)
21 Grapple Mar 9, 2015 $6.99N/A (N/A)20,000 .. 50,0000%00:00 (00:00)
22 Wildlife Park 3 May 12, 2014 $9.99N/A (N/A)100,000 .. 200,0000%00:00 (00:00)
23 Dominique Pamplemousse Mar 11, 2014 $0.99N/A (N/A/62%)20,000 .. 50,0000%00:00 (00:00)
24 Crazy Plant Shop Aug 4, 2014 $4.99N/A (N/A)20,000 .. 50,0000%00:00 (00:00)
25 Tribloos 2 Jan 12, 2013 $4.99N/A (N/A)100,000 .. 200,0000%00:00 (00:00)
26 Pressured Jul 18, 2014 $2.99N/A (N/A)200,000 .. 500,0000%00:00 (00:00)
27 On Rusty Trails Jun 13, 2016 $12.99N/A (N/A/77%)20,000 .. 50,0000%00:00 (00:00)
28 Automation - The Car Company Tycoon Game Mar 12, 2015 $29.99N/A (N/A)200,000 .. 500,00011.11%03:32 (01:46)
29 Sportsfriends Dec 19, 2014 $14.99N/A (N/A)0 .. 20,0000%00:00 (00:00)
30 The Floor is Jelly May 30, 2014 $9.99N/A (N/A/83%)50,000 .. 100,0000%00:00 (00:00)
31 Rage Runner May 16, 2014 $4.99N/A (N/A)0 .. 20,0000%00:00 (00:00)
32 Spy Chameleon - RGB Agent Jun 11, 2014 $4.99N/A (N/A)20,000 .. 50,0000%00:00 (00:00)
33 Pretentious Game May 20, 2014 $1.99N/A (N/A)50,000 .. 100,0000%00:00 (00:00)
34 Girls Like Robots Feb 14, 2014 $6.99N/A (N/A)100,000 .. 200,0000%00:00 (00:00)
35 Dream Car Builder Sep 21, 2018 $9.99N/A (N/A)0 .. 20,0000%00:00 (00:00)
36 Where are my Internets? Dec 16, 2016 $2.99N/A (N/A)50,000 .. 100,0000%00:00 (00:00)
37 Gravity Cat Jul 13, 2016 $2.99N/A (N/A)20,000 .. 50,0000%00:00 (00:00)
38 Don't Chat With Strangers Jan 6, 2017 $4.99N/A (N/A)20,000 .. 50,0000%00:00 (00:00)
39 12 Labours of Hercules V: Kids of Hellas (Platinum Edition) Jun 17, 2016 $2.99N/A (N/A)0 .. 20,0000%00:00 (00:00)
40 Kombine Oct 14, 2016 $0.99N/A (N/A)0 .. 20,0000%00:00 (00:00)
41 ConflictCraft Dec 8, 2016 $1.99N/A (N/A)100,000 .. 200,0000%00:00 (00:00)
42 Luke Sidewalker Nov 25, 2016 FreeN/A (N/A)50,000 .. 100,0000%00:00 (00:00)
43 The Housewife Aug 25, 2016 $4.99N/A (N/A)200,000 .. 500,0000%00:00 (00:00)
44 iREC Jan 16, 2017 $0.5N/A (N/A)100,000 .. 200,0000%00:00 (00:00)
45 Farm Life: Natures Adventure Aug 8, 2016 $0.99N/A (N/A)50,000 .. 100,0000%00:00 (00:00)
46 Access Denied Dec 16, 2016 $2.99N/A (N/A)20,000 .. 50,0000%00:00 (00:00)
47 Mu Cartographer May 29, 2016 $4.99N/A (N/A)20,000 .. 50,0000%00:00 (00:00)
48 Pictopix Jan 5, 2017 $6.99N/A (N/A)50,000 .. 100,0000%00:00 (00:00)
49 Dots eXtreme Jun 12, 2016 $1.99N/A (N/A)20,000 .. 50,0000%00:00 (00:00)
50 Winexy Jan 13, 2017 $4.99N/A (N/A)50,000 .. 100,0000%00:00 (00:00)
51 Timore 5 Aug 25, 2016 $7.99N/A (N/A)0 .. 20,0000%00:00 (00:00)
52 Quantum Rush Champions Dec 4, 2014 $9.99N/A (N/A)20,000 .. 50,0000%00:00 (00:00)
53 Cyto Jul 10, 2014 $3.99N/A (N/A)20,000 .. 50,0000%00:00 (00:00)
54 Cosmonautica Jul 31, 2015 $9.99N/A (N/A)200,000 .. 500,0000%00:00 (00:00)
55 Point Perfect Jul 17, 2014 $4.99N/A (N/A)50,000 .. 100,0000%00:00 (00:00)
56 Laserlife Sep 22, 2015 $9.99N/A (N/A)20,000 .. 50,0000%00:00 (00:00)
57 Cute Things Dying Violently Sep 2, 2015 $2.99N/A (N/A)0 .. 20,0000%00:00 (00:00)
58 Poltergeist: A Pixelated Horror Oct 20, 2014 $7.99N/A (N/A/70%)0 .. 20,0000%00:00 (00:00)
59 Wildlife Park 2 - Horses Oct 12, 2007 $3.99N/A (N/A)0 .. 20,0000%00:00 (00:00)
60 Parallax Mar 10, 2015 $4.99N/A (N/A/68%)0 .. 20,0000%00:00 (00:00)
61 Wildlife Park 2 - Dino World Mar 30, 2012 $3.99N/A (N/A)20,000 .. 50,0000%00:00 (00:00)
62 Letter Quest: Grimm's Journey Nov 20, 2014 $7.99N/A (N/A/73%)100,000 .. 200,0000%00:00 (00:00)
63 Wildlife Park 2 - Fantasy Nov 15, 2013 $0.99N/A (N/A)20,000 .. 50,0000%00:00 (00:00)
64 Over The Void Nov 11, 2014 $4.99N/A (N/A)20,000 .. 50,0000%00:00 (00:00)
65 Metrocide Oct 20, 2014 $12.99N/A (N/A/68%)50,000 .. 100,0000%00:00 (00:00)
66 Prelogate Dec 10, 2014 $3.99N/A (N/A)0 .. 20,0000%00:00 (00:00)
67 A Good Snowman Is Hard To Build Feb 25, 2015 $9.99N/A (N/A)50,000 .. 100,0000%00:00 (00:00)
68 The Treasures of Montezuma 4 Oct 9, 2013 $6.99N/A (N/A)20,000 .. 50,0000%00:00 (00:00)
69 Ninja Stealth 2 Jan 30, 2017 $0.99N/A (N/A)50,000 .. 100,0000%00:00 (00:00)
70 Dungeon Painter Studio Feb 26, 2017 $14.99N/A (N/A)50,000 .. 100,0000%00:00 (00:00)
71 Oik 2 Mar 28, 2017 $0.99N/A (N/A)0 .. 20,0000%00:00 (00:00)
72 CarX Drift Racing Online Nov 17, 2017 $14.99N/A (N/A)200,000 .. 500,00038.89%04:15 (07:14)
73 Pixel Puzzles 2: Birds Feb 20, 2015 $4.99N/A (N/A)200,000 .. 500,0000%00:00 (00:00)
74 Marble Duel: Sphere-Matching Tactical Fantasy Nov 12, 2015 $14.99N/A (N/A)50,000 .. 100,0000%00:00 (00:00)
75 Quell May 14, 2015 $3.99N/A (N/A)0 .. 20,0000%00:00 (00:00)
76 Castle Jan 7, 2015 $4.99N/A (N/A)20,000 .. 50,0000%00:00 (00:00)
77 Astro Emporia Feb 2, 2015 $0.99N/A (N/A)20,000 .. 50,0000%00:00 (00:00)
78 Cubot Jan 8, 2015 $1.99N/A (N/A)20,000 .. 50,0000%00:00 (00:00)
79 Streets of Chaos Jan 23, 2015 N/AN/A (N/A)100,000 .. 200,0000%00:00 (00:00)
80 Unhack Feb 20, 2014 $3.99N/A (N/A)20,000 .. 50,0000%00:00 (00:00)
81 Racecraft Mar 4, 2016 FreeN/A (N/A)20,000 .. 50,0000%00:00 (00:00)
82 HyperRogue Jan 16, 2015 $9.99N/A (N/A)20,000 .. 50,00025%00:22 (00:11)
83 Dodge Mar 16, 2015 $1.99N/A (N/A)20,000 .. 50,0000%00:00 (00:00)
84 Pixel Survivors May 5, 2016 $3.99N/A (N/A)50,000 .. 100,0000%00:00 (00:00)
85 Pester Jan 25, 2013 $0.99N/A (N/A)100,000 .. 200,0000%00:00 (00:00)
86 Crash Drive 2 May 28, 2015 $4.99N/A (N/A)200,000 .. 500,0000%00:00 (00:00)
87 Drizzlepath Mar 12, 2015 $1.99N/A (N/A)20,000 .. 50,0000%00:00 (00:00)
88 Bob Was Hungry Aug 19, 2015 $9.99N/A (N/A)50,000 .. 100,0000%00:00 (00:00)
89 Goats on a Bridge Feb 6, 2015 $4.99N/A (N/A)50,000 .. 100,0000%00:00 (00:00)
90 Unium Feb 3, 2015 $1.99N/A (N/A)0 .. 20,00025%00:06 (00:02)
91 Fate Tectonics Sep 9, 2015 $4.99N/A (N/A)20,000 .. 50,0000%00:00 (00:00)
92 The Reject Demon: Toko Chapter 0 — Prelude May 9, 2015 $4.99N/A (N/A)20,000 .. 50,0000%00:00 (00:00)
93 Koala Kids Jun 22, 2015 $1.99N/A (N/A)20,000 .. 50,0000%00:00 (00:00)
94 Cursed Sight Aug 3, 2015 $4.99N/A (N/A)20,000 .. 50,0000%00:00 (00:00)
95 Painters Guild Sep 1, 2015 $9.99N/A (N/A)20,000 .. 50,0000%00:00 (00:00)
96 MOAI 2: Path to Another World Apr 11, 2015 $7.99N/A (N/A)0 .. 20,0000%00:00 (00:00)
97 Job the Leprechaun Jul 31, 2015 $2.99N/A (N/A)20,000 .. 50,0000%00:00 (00:00)
98 Power of Love Jul 21, 2015 $0.99N/A (N/A)20,000 .. 50,0000%00:00 (00:00)
99 Sentinel 4: Dark Star Aug 13, 2015 $6.99N/A (N/A)0 .. 20,0000%00:00 (00:00)
100 Cash_Out May 27, 2015 $4.99N/A (N/A)0 .. 20,0000%00:00 (00:00)
101 Asphyxia Aug 4, 2015 $5.99N/A (N/A)20,000 .. 50,0000%00:00 (00:00)
102 Way of Gold and Steel Aug 17, 2015 $8.99N/A (N/A)20,000 .. 50,0000%00:00 (00:00)
103 Robot vs Birds Zombies Jun 1, 2013 $0.99N/A (N/A)500,000 .. 1,000,0000%00:00 (00:00)
104 Hired Ops Oct 21, 2016 FreeN/A (N/A)200,000 .. 500,0000%00:00 (00:00)
105 Collisions Jul 28, 2015 $3.99N/A (N/A)20,000 .. 50,0000%00:00 (00:00)
106 Space Drifters 2D Mar 28, 2016 $0.99N/A (N/A)20,000 .. 50,0000%00:00 (00:00)
107 Crayon Physics Deluxe May 6, 2009 $19.99N/A (N/A/79%)500,000 .. 1,000,0000%00:00 (00:00)
108 Gateways Sep 13, 2012 $4.99N/A (N/A/72%)50,000 .. 100,0000%00:00 (00:00)
109 Windosill Sep 25, 2009 $2.99N/A (N/A)100,000 .. 200,0000%00:00 (00:00)
110 Storm Jun 27, 2013 $9.99N/A (N/A/63%)20,000 .. 50,0000%00:00 (00:00)
111 Luxor: 5th Passage Jan 25, 2011 $9.99N/A (N/A)50,000 .. 100,0000%00:00 (00:00)
112 Lunnye Devitsy Jul 1, 2009 $4.99N/A (N/A)20,000 .. 50,0000%00:00 (00:00)
113 Glowfish Sep 30, 2011 $9.99N/A (N/A)20,000 .. 50,0000%00:00 (00:00)
114 Soundodger+ Oct 11, 2013 $7.99N/A (N/A/78%)50,000 .. 100,0000%00:00 (00:00)
115 Governor of Poker 2 - Premium Edition Oct 11, 2010 $14.99N/A (N/A)20,000 .. 50,0000%00:00 (00:00)
116 Reach for the Sun May 6, 2013 $4.99N/A (N/A)20,000 .. 50,0000%00:00 (00:00)
117 PixelJunk Eden Feb 2, 2012 $9.99N/A (N/A/81%)200,000 .. 500,0000%00:00 (00:00)
118 Particulars Nov 19, 2014 FreeN/A (N/A/74%)0 .. 20,0000%00:00 (00:00)
119 Blocks That Matter Aug 19, 2011 $4.99N/A (N/A/72%)200,000 .. 500,0000%00:00 (00:00)
120 Dead Man's Draw Feb 6, 2014 $6.99N/A (N/A)50,000 .. 100,0000%00:00 (00:00)
121 Luxor Evolved Mar 1, 2012 $9.99N/A (N/A)50,000 .. 100,0000%00:00 (00:00)
122 Smooth Operators Jan 14, 2013 $2.99N/A (N/A)20,000 .. 50,0000%00:00 (00:00)
123 Auditorium Feb 28, 2012 $6.99N/A (N/A)50,000 .. 100,0000%00:00 (00:00)
124 The Deletion Jul 30, 2015 $1.99N/A (N/A)20,000 .. 50,0000%00:00 (00:00)
125 Our Love Will Grow Dec 4, 2015 $4.99N/A (N/A)20,000 .. 50,0000%00:00 (00:00)
126 Labyrinth Simulator Sep 21, 2015 $4.99N/A (N/A)0 .. 20,0000%00:00 (00:00)
127 Goodnight Butcher Dec 18, 2015 $1.99N/A (N/A)0 .. 20,0000%00:00 (00:00)
128 Lift It Jan 20, 2017 $4.99N/A (N/A)50,000 .. 100,0000%00:00 (00:00)
129 Pythagoria Jan 22, 2016 N/AN/A (N/A)20,000 .. 50,0000%00:00 (00:00)
130 Star Sky Oct 23, 2015 $3.99N/A (N/A)0 .. 20,0000%00:00 (00:00)
131 Arctic alive Jan 29, 2016 $1.99N/A (N/A)0 .. 20,0000%00:00 (00:00)
132 Cibele Nov 2, 2015 $8.99N/A (N/A/71%)50,000 .. 100,0000%00:00 (00:00)
133 Surfingers Jan 27, 2016 $1.99N/A (N/A)50,000 .. 100,0000%00:00 (00:00)
134 Herding Dog Dec 25, 2015 $1.99N/A (N/A)0 .. 20,0000%00:00 (00:00)
135 Sophie's Curse Mar 16, 2016 $4.99N/A (N/A)50,000 .. 100,0000%00:00 (00:00)
136 Mines of Mars Sep 10, 2018 $6.99N/A (N/A)0 .. 20,0000%00:00 (00:00)
137 Night Blights Apr 15, 2016 $6.99N/A (N/A)0 .. 20,0000%00:00 (00:00)
138 Rescue Team 5 Sep 30, 2015 $3.99N/A (N/A)0 .. 20,0000%00:00 (00:00)
139 RePete Nov 1, 2015 $1.99N/A (N/A)0 .. 20,0000%00:00 (00:00)
140 Creeper World: Anniversary Edition Nov 16, 2016 $4.99N/A (N/A)20,000 .. 50,0000%00:00 (00:00)

Tags over time:

Access restricted.

This feature is only available to users with special access rights. Sorry.

If you want to proceed, you need to register or log in first and then back Steam Spy on Patreon. Look for Indie or Pro pledge.

Don't forget to use the same email as on Steam Spy!

If you've recently backed Steam Spy on Patreon, please note, that it might take around 15 minutes for your access rights to sync. In most cases you'll need to re-login on Steam Spy too.

Owners of this game also own:

Access restricted.

This feature is only available to users with special access rights. Sorry.

If you want to proceed, you need to register or log in first and then back Steam Spy on Patreon. Look for Indie or Pro pledge.

Don't forget to use the same email as on Steam Spy!

If you've recently backed Steam Spy on Patreon, please note, that it might take around 15 minutes for your access rights to sync. In most cases you'll need to re-login on Steam Spy too.

Playtime distribution:

Access restricted.

This feature is only available to users with special access rights. Sorry.

If you want to proceed, you need to register or log in first and then back Steam Spy on Patreon. Look for Indie or Pro pledge.

Don't forget to use the same email as on Steam Spy!

If you've recently backed Steam Spy on Patreon, please note, that it might take around 15 minutes for your access rights to sync. In most cases you'll need to re-login on Steam Spy too.

Playtime (2 weeks):

Access restricted.

This feature is only available to users with special access rights. Sorry.

If you want to proceed, you need to register or log in first and then back Steam Spy on Patreon. Look for Indie or Pro pledge.

Don't forget to use the same email as on Steam Spy!

If you've recently backed Steam Spy on Patreon, please note, that it might take around 15 minutes for your access rights to sync. In most cases you'll need to re-login on Steam Spy too.

User reviews:

Login required.

Please register or log in to see this information.